Turtlepoint, Pennsylvania
Current Conditions -  °F | °C
As of 11:33 AM on Wednesday 22 Oct 2014 (Local Time) from KBFD Reporting Station
Haze Haze  
Wind Chill: 35°   Ceiling: 200
Heat Index: 41°   Visibility: 0.75mi
Dew Point: 40°   Wind: 10mph
Humidity: 96%   Direction: 350°N
Pressure: 30.14"   Gusts: NA
Location:  41.87°N, 78.34°W
Report Text: KBFD 221533Z AUTO 35009KT 3/4SM BR OVC002 05/04 A3014 RMK AO2 T00500044
Loading
Personal Weather Stations






























Interactive Weather Map
Tropical Storm Tracking
New forecast layout! Learn more

10-Day Weather Forecast

Advertisements
Track Severe Weather on mobile